sensor_id;sensor_type;location;lat;lon;timestamp;temperature;humidity
35563;DHT22;21665;40.108;18.302;2023-09-12T07:55:46;31.50;99.90
35563;DHT22;21665;40.108;18.302;2023-09-12T07:58:21;31.60;99.90
35563;DHT22;21665;40.108;18.302;2023-09-12T08:00:47;32.10;99.90
35563;DHT22;21665;40.108;18.302;2023-09-12T08:03:14;32.60;99.90
35563;DHT22;21665;40.108;18.302;2023-09-12T08:05:42;32.50;99.90
35563;DHT22;21665;40.108;18.302;2023-09-12T08:08:08;32.30;99.90
35563;DHT22;21665;40.108;18.302;2023-09-12T08:10:35;32.50;99.90
35563;DHT22;21665;40.108;18.302;2023-09-12T08:13:03;32.60;99.90
35563;DHT22;21665;40.108;18.302;2023-09-12T08:15:31;33.00;99.90
35563;DHT22;21665;40.108;18.302;2023-09-12T08:17:58;32.90;99.90
35563;DHT22;21665;40.108;18.302;2023-09-12T08:20:40;32.20;99.90
35563;DHT22;21665;40.108;18.302;2023-09-12T08:23:23;32.20;99.90
35563;DHT22;21665;40.108;18.302;2023-09-12T08:25:49;32.80;99.90
35563;DHT22;21665;40.108;18.302;2023-09-12T08:28:16;33.00;99.90
35563;DHT22;21665;40.108;18.302;2023-09-12T08:30:45;32.40;99.90
35563;DHT22;21665;40.108;18.302;2023-09-12T08:33:23;32.90;99.90
35563;DHT22;21665;40.108;18.302;2023-09-12T08:35:50;33.00;99.90
35563;DHT22;21665;40.108;18.302;2023-09-12T08:38:17;32.50;99.90
35563;DHT22;21665;40.108;18.302;2023-09-12T08:40:50;32.50;99.90
35563;DHT22;21665;40.108;18.302;2023-09-12T08:43:20;32.60;99.90
35563;DHT22;21665;40.108;18.302;2023-09-12T08:45:47;32.80;99.90
35563;DHT22;21665;40.108;18.302;2023-09-12T08:48:13;32.70;99.90
35563;DHT22;21665;40.108;18.302;2023-09-12T08:50:49;32.60;99.90
35563;DHT22;21665;40.108;18.302;2023-09-12T08:53:20;32.50;99.90
35563;DHT22;21665;40.108;18.302;2023-09-12T08:55:48;32.70;99.90
35563;DHT22;21665;40.108;18.302;2023-09-12T08:58:19;32.20;99.90
35563;DHT22;21665;40.108;18.302;2023-09-12T09:00:53;31.40;99.90
35563;DHT22;21665;40.108;18.302;2023-09-12T09:03:22;31.30;99.90
35563;DHT22;21665;40.108;18.302;2023-09-12T09:05:50;31.60;99.90
35563;DHT22;21665;40.108;18.302;2023-09-12T09:08:18;32.00;99.90
35563;DHT22;21665;40.108;18.302;2023-09-12T09:11:05;31.70;99.90
35563;DHT22;21665;40.108;18.302;2023-09-12T09:13:35;31.60;99.90
35563;DHT22;21665;40.108;18.302;2023-09-12T09:16:22;31.70;99.90
35563;DHT22;21665;40.108;18.302;2023-09-12T09:18:59;32.00;99.90
35563;DHT22;21665;40.108;18.302;2023-09-12T09:21:29;32.00;99.90
35563;DHT22;21665;40.108;18.302;2023-09-12T09:24:23;31.70;99.90
35563;DHT22;21665;40.108;18.302;2023-09-12T09:26:51;31.70;99.90
35563;DHT22;21665;40.108;18.302;2023-09-12T09:29:25;31.90;99.90
35563;DHT22;21665;40.108;18.302;2023-09-12T09:31:52;32.00;99.90
35563;DHT22;21665;40.108;18.302;2023-09-12T09:34:20;32.10;99.90
35563;DHT22;21665;40.108;18.302;2023-09-12T09:36:49;32.20;99.90
35563;DHT22;21665;40.108;18.302;2023-09-12T09:39:19;32.30;99.90
35563;DHT22;21665;40.108;18.302;2023-09-12T09:41:54;32.50;99.90
35563;DHT22;21665;40.108;18.302;2023-09-12T09:44:24;32.60;99.90
35563;DHT22;21665;40.108;18.302;2023-09-12T09:46:59;32.60;99.90
35563;DHT22;21665;40.108;18.302;2023-09-12T09:49:33;32.10;99.90
35563;DHT22;21665;40.108;18.302;2023-09-12T09:52:06;31.90;99.90
35563;DHT22;21665;40.108;18.302;2023-09-12T09:54:33;32.10;99.90
35563;DHT22;21665;40.108;18.302;2023-09-12T09:56:59;32.00;99.90
35563;DHT22;21665;40.108;18.302;2023-09-12T09:59:27;32.00;99.90
35563;DHT22;21665;40.108;18.302;2023-09-12T10:01:58;32.20;99.90
35563;DHT22;21665;40.108;18.302;2023-09-12T10:04:29;32.50;99.90
35563;DHT22;21665;40.108;18.302;2023-09-12T10:06:58;32.70;99.90
35563;DHT22;21665;40.108;18.302;2023-09-12T10:09:28;33.00;99.90
35563;DHT22;21665;40.108;18.302;2023-09-12T10:11:58;33.10;99.90
35563;DHT22;21665;40.108;18.302;2023-09-12T10:14:27;32.70;99.90
35563;DHT22;21665;40.108;18.302;2023-09-12T10:17:00;32.20;99.90
35563;DHT22;21665;40.108;18.302;2023-09-12T10:25:49;32.20;99.90
35563;DHT22;21665;40.108;18.302;2023-09-12T10:28:17;32.70;99.90
35563;DHT22;21665;40.108;18.302;2023-09-12T10:30:45;32.70;99.90
35563;DHT22;21665;40.108;18.302;2023-09-12T10:33:12;32.70;99.90
35563;DHT22;21665;40.108;18.302;2023-09-12T10:35:40;32.80;99.90
35563;DHT22;21665;40.108;18.302;2023-09-12T10:38:07;32.60;99.90
35563;DHT22;21665;40.108;18.302;2023-09-12T10:40:38;32.60;99.90
35563;DHT22;21665;40.108;18.302;2023-09-12T10:43:05;32.90;99.90
35563;DHT22;21665;40.108;18.302;2023-09-12T10:45:32;32.90;99.90
35563;DHT22;21665;40.108;18.302;2023-09-12T10:47:59;33.00;99.90
35563;DHT22;21665;40.108;18.302;2023-09-12T10:50:48;33.20;99.90
35563;DHT22;21665;40.108;18.302;2023-09-12T10:53:16;33.20;99.90
35563;DHT22;21665;40.108;18.302;2023-09-12T10:55:58;33.10;99.90
35563;DHT22;21665;40.108;18.302;2023-09-12T10:58:27;33.30;99.90
35563;DHT22;21665;40.108;18.302;2023-09-12T11:01:22;33.00;99.90
35563;DHT22;21665;40.108;18.302;2023-09-12T11:03:54;32.80;99.90
35563;DHT22;21665;40.108;18.302;2023-09-12T11:06:31;32.80;99.90
35563;DHT22;21665;40.108;18.302;2023-09-12T11:11:45;33.00;99.90
35563;DHT22;21665;40.108;18.302;2023-09-12T11:14:13;32.20;99.90
35563;DHT22;21665;40.108;18.302;2023-09-12T11:16:42;31.80;99.90
35563;DHT22;21665;40.108;18.302;2023-09-12T11:19:14;32.00;99.90
35563;DHT22;21665;40.108;18.302;2023-09-12T11:21:43;32.10;99.90
35563;DHT22;21665;40.108;18.302;2023-09-12T11:24:10;32.20;99.90
35563;DHT22;21665;40.108;18.302;2023-09-12T11:29:34;32.40;99.90
35563;DHT22;21665;40.108;18.302;2023-09-12T11:32:05;32.30;99.90
35563;DHT22;21665;40.108;18.302;2023-09-12T11:34:45;32.20;99.90
35563;DHT22;21665;40.108;18.302;2023-09-12T11:37:24;32.20;99.90
35563;DHT22;21665;40.108;18.302;2023-09-12T11:39:53;32.40;99.90
35563;DHT22;21665;40.108;18.302;2023-09-12T11:42:19;32.70;99.90
35563;DHT22;21665;40.108;18.302;2023-09-12T11:44:49;32.50;99.90
35563;DHT22;21665;40.108;18.302;2023-09-12T11:47:16;32.20;99.90
35563;DHT22;21665;40.108;18.302;2023-09-12T11:49:43;31.90;99.90
35563;DHT22;21665;40.108;18.302;2023-09-12T11:52:14;31.80;99.90
35563;DHT22;21665;40.108;18.302;2023-09-12T11:54:43;31.50;99.90
35563;DHT22;21665;40.108;18.302;2023-09-12T11:57:13;31.40;99.90
35563;DHT22;21665;40.108;18.302;2023-09-12T11:59:43;31.10;99.90
35563;DHT22;21665;40.108;18.302;2023-09-12T12:02:14;31.10;99.90
35563;DHT22;21665;40.108;18.302;2023-09-12T12:04:41;31.10;99.90
35563;DHT22;21665;40.108;18.302;2023-09-12T12:07:10;31.00;99.90
35563;DHT22;21665;40.108;18.302;2023-09-12T12:09:37;31.00;99.90
35563;DHT22;21665;40.108;18.302;2023-09-12T12:12:14;30.90;99.90
35563;DHT22;21665;40.108;18.302;2023-09-12T12:14:49;30.70;99.90
35563;DHT22;21665;40.108;18.302;2023-09-12T12:17:16;30.70;99.90
35563;DHT22;21665;40.108;18.302;2023-09-12T12:19:46;30.70;99.90
35563;DHT22;21665;40.108;18.302;2023-09-12T12:22:14;30.90;99.90
35563;DHT22;21665;40.108;18.302;2023-09-12T12:24:49;30.90;99.90
35563;DHT22;21665;40.108;18.302;2023-09-12T12:27:28;31.00;99.90
35563;DHT22;21665;40.108;18.302;2023-09-12T12:29:55;31.20;99.90
35563;DHT22;21665;40.108;18.302;2023-09-12T12:32:22;30.80;99.90
35563;DHT22;21665;40.108;18.302;2023-09-12T12:34:49;30.90;99.90
35563;DHT22;21665;40.108;18.302;2023-09-12T12:37:27;31.10;99.90
35563;DHT22;21665;40.108;18.302;2023-09-12T12:40:02;30.90;99.90
35563;DHT22;21665;40.108;18.302;2023-09-12T13:22:56;30.90;99.90
35563;DHT22;21665;40.108;18.302;2023-09-12T13:25:23;30.70;99.90
35563;DHT22;21665;40.108;18.302;2023-09-12T13:28:42;30.60;99.90
35563;DHT22;21665;40.108;18.302;2023-09-12T13:31:20;30.60;99.90
35563;DHT22;21665;40.108;18.302;2023-09-12T13:33:49;30.70;99.90
35563;DHT22;21665;40.108;18.302;2023-09-12T13:36:16;30.70;99.90
35563;DHT22;21665;40.108;18.302;2023-09-12T13:38:58;30.70;99.90
35563;DHT22;21665;40.108;18.302;2023-09-12T13:50:34;30.70;99.90
35563;DHT22;21665;40.108;18.302;2023-09-12T13:53:02;30.40;99.90
35563;DHT22;21665;40.108;18.302;2023-09-12T13:55:38;30.50;99.90
35563;DHT22;21665;40.108;18.302;2023-09-12T13:58:10;30.70;99.90
35563;DHT22;21665;40.108;18.302;2023-09-12T14:00:36;30.90;99.90
35563;DHT22;21665;40.108;18.302;2023-09-12T14:03:03;30.70;99.90
